Flight Track Log - Related Links

Times and Time Zones

All times are in EDT time to prevent confusion due to time zone crossing. See the VNR104 flight status page for this flight to view local times or setup timezone preferences in your user account.

Time Position Orientation Groundspeed Altitude Reporting Facility
EDT Latitude Longitude Course Direction KTS MPH feet Rate Location/Type
Tue 08:47:44 PM 35.1903 -80.9153 115° Southeast 147 169 1,900  Level Atlanta Center
Tue 08:48:45 PM 35.1886 -80.8544 92° East 198 228 3,100 441 Climbing Atlanta Center
Tue 08:50:00 PM 35.1790 -80.9775 248° West  Level Estimated
Tue 08:52:30 PM 35.1792 -81.0556 248° West 206 237 4,000  Level Atlanta Center
Tue 08:52:54 PM 35.1778 -81.0861 267° West 228 262 4,000 353 Level Atlanta Center
Tue 08:53:55 PM 35.1650 -81.1628 258° West 243 280 4,500 1,082 Climbing Atlanta Center
Tue 08:54:56 PM 35.1292 -81.2350 239° Southwest 233 268 6,200 1,623 Climbing Atlanta Center
Tue 08:55:57 PM 35.0931 -81.3022 237° Southwest 232 267 7,800 1,574 Climbing Atlanta Center
Tue 08:56:58 PM 35.0633 -81.3744 243° Southwest 241 277 9,400 1,770 Climbing Atlanta Center
Tue 08:57:00 PM 35.1225 -81.6659 248° West  Level Estimated
Tue 08:57:59 PM 35.0381 -81.4514 248° West 245 282 11,400  Level Atlanta Center
Tue 08:58:32 PM 35.0264 -81.4972 253° West 317 365 12,000 581 Climbing Atlanta Center
Tue 08:59:01 PM 35.0147 -81.5383 251° West 274 315 12,000  Level Atlanta Center
Tue 08:59:32 PM 34.9992 -81.5894 250° West 287 330 12,000  Level Atlanta Center
Tue 09:00:01 PM 34.9811 -81.6381 246° West 318 366 12,000 400 Level Atlanta Center
Tue 09:00:32 PM 34.9697 -81.6892 255° West 293 337 12,400 1,582 Climbing Atlanta Center
Tue 09:01:32 PM 34.9442 -81.7786 251° West 291 335 14,400 1,850 Climbing Atlanta Center
Tue 09:02:32 PM 34.9164 -81.8503 245° Southwest 277 319 16,100 1,800 Climbing Atlanta Center
Tue 09:03:32 PM 34.8736 -81.9197 233° Southwest 266 306 18,000 2,000 Climbing Atlanta Center
Tue 09:04:32 PM 34.8269 -81.9967 234° Southwest 259 298 20,100 1,950 Climbing Atlanta Center
Tue 09:05:32 PM 34.7925 -82.0608 237° Southwest 259 298 21,900 1,650 Climbing Atlanta Center
Tue 09:06:32 PM 34.7500 -82.1378 236° Southwest 272 313 23,400 1,500 Climbing Atlanta Center
Tue 09:07:32 PM 34.7053 -82.2119 234° Southwest 272 313 24,900 1,500 Climbing Atlanta Center
Tue 09:08:32 PM 34.6625 -82.2861 235° Southwest 277 319 26,400 1,400 Climbing Atlanta Center
Tue 09:09:32 PM 34.6197 -82.3653 237° Southwest 277 319 27,700 1,150 Climbing Atlanta Center
Tue 09:10:32 PM 34.5728 -82.4469 235° Southwest 282 325 28,700 1,000 Climbing Atlanta Center
Tue 09:11:32 PM 34.5281 -82.5258 235° Southwest 293 337 29,700 1,000 Climbing Atlanta Center
Tue 09:12:32 PM 34.4789 -82.6075 234° Southwest 293 337 30,700 1,050 Climbing Atlanta Center
Tue 09:13:32 PM 34.4317 -82.6864 234° Southwest 293 337 31,800 1,000 Climbing Atlanta Center
Tue 09:14:32 PM 34.3867 -82.7650 235° Southwest 293 337 32,700 750 Climbing Atlanta Center
Tue 09:15:32 PM 34.3394 -82.8439 234° Southwest 298 343 33,300 600 Climbing Atlanta Center
Tue 09:16:32 PM 34.2942 -82.9275 237° Southwest 292 336 33,900 600 Climbing Atlanta Center
Tue 09:17:32 PM 34.2386 -83.0161 233° Southwest 297 342 34,500 650 Climbing Atlanta Center
Tue 09:18:32 PM 34.1914 -83.0994 236° Southwest 297 342 35,200 500 Climbing Atlanta Center
Tue 09:19:32 PM 34.1439 -83.1803 235° Southwest 297 342 35,500 350 Climbing Atlanta Center
Tue 09:20:32 PM 34.0944 -83.2636 234° Southwest 302 348 35,900 200 Climbing Atlanta Center
Tue 09:21:32 PM 34.0428 -83.3519 235° Southwest 316 364 35,900 50 Level Atlanta Center
Tue 09:22:32 PM 33.9889 -83.4400 234° Southwest 321 369 36,000 50 Climbing Atlanta Center
Tue 09:23:32 PM 33.9372 -83.5306 236° Southwest 331 381 36,000  Level Atlanta Center
Tue 09:24:32 PM 33.8811 -83.6233 234° Southwest 337 388 36,000  Level Atlanta Center
Tue 09:25:32 PM 33.8378 -83.7236 243° Southwest 344 396 36,000  Level Atlanta Center
Tue 09:26:32 PM 33.8086 -83.8189 250° West 332 382 36,000  Level Atlanta Center
Tue 09:27:32 PM 33.7775 -83.9239 250° West 338 389 36,000  Level Atlanta Center
Tue 09:28:32 PM 33.7461 -84.0289 250° West 345 397 36,000  Level Atlanta Center
Tue 09:29:32 PM 33.7150 -84.1336 250° West 345 397 36,000  Level Atlanta Center
Tue 09:30:32 PM 33.6833 -84.2511 252° West 340 391 36,000  Level Atlanta Center
Tue 09:31:32 PM 33.6519 -84.3533 250° West 340 391 36,000  Level Atlanta Center
Tue 09:32:32 PM 33.6308 -84.4456 255° West 335 386 36,000  Level Atlanta Center
Tue 09:33:32 PM 33.6325 -84.5553 271° West 325 374 36,000  Level Atlanta Center
Tue 09:34:32 PM 33.6361 -84.6625 272° West 330 380 36,000  Level Atlanta Center
Tue 09:35:32 PM 33.6378 -84.7675 271° West 330 380 36,000  Level Atlanta Center
Tue 09:36:32 PM 33.6411 -84.8797 272° West 330 380 36,000  Level Atlanta Center
Tue 09:37:32 PM 33.6425 -84.9894 271° West 330 380 36,000  Level Atlanta Center
Tue 09:38:32 PM 33.6456 -85.0994 272° West 335 386 36,000  Level Atlanta Center
Tue 09:39:32 PM 33.6489 -85.2092 272° West 328 377 36,000  Level Atlanta Center
Tue 09:40:32 PM 33.6497 -85.3189 271° West 328 377 36,000  Level Atlanta Center
Tue 09:41:32 PM 33.6528 -85.4264 272° West 328 377 36,000  Level Atlanta Center
Tue 09:42:32 PM 33.6536 -85.5461 271° West 328 377 36,000  Level Atlanta Center
Tue 09:43:32 PM 33.6583 -85.6536 273° West 328 377 36,000  Level Atlanta Center
Tue 09:44:32 PM 33.6611 -85.7658 272° West 333 383 36,000  Level Atlanta Center
Tue 09:45:32 PM 33.6597 -85.8683 269° West 313 360 36,000  Level Atlanta Center
Tue 09:46:32 PM 33.6600 -85.9756 270° West 313 360 36,000  Level Atlanta Center
Tue 09:47:32 PM 33.6625 -86.0803 272° West 313 360 36,000  Level Atlanta Center
Tue 09:48:32 PM 33.6628 -86.1878 270° West 318 366 36,000  Level Atlanta Center
Tue 09:49:32 PM 33.6650 -86.2975 271° West 328 377 36,000  Level Atlanta Center
Tue 09:50:32 PM 33.6653 -86.4025 270° West 328 377 36,000  Level Atlanta Center
Tue 09:51:32 PM 33.6650 -86.5097 270° West 328 377 36,000  Level Atlanta Center
Tue 09:52:32 PM 33.6672 -86.6147 271° West 328 377 36,000  Level Atlanta Center
Tue 09:53:32 PM 33.6692 -86.7219 271° West 328 377 36,000  Level Atlanta Center
Tue 09:54:32 PM 33.6708 -86.8269 271° West 328 377 36,000  Level Atlanta Center
Tue 09:55:32 PM 33.6664 -86.9317 267° West 328 377 36,000  Level Atlanta Center
Tue 09:56:32 PM 33.6556 -87.0361 263° West 328 377 36,000  Level Atlanta Center
Tue 09:57:32 PM 33.6447 -87.1381 263° West 328 377 36,000  Level Atlanta Center
Tue 09:58:32 PM 33.6317 -87.2372 261° West 328 377 36,000  Level Atlanta Center
Tue 10:00:08 PM 33.6136 -87.4039 263° West 325 374 36,000  Level Memphis Center
Tue 10:01:08 PM 33.6014 -87.5042 262° West 314 361 36,000  Level Memphis Center
Tue 10:02:08 PM 33.5911 -87.6067 263° West 314 361 36,000  Level Memphis Center
Tue 10:03:08 PM 33.5789 -87.7067 262° West 314 361 36,000  Level Memphis Center
Tue 10:04:08 PM 33.5661 -87.8069 261° West 314 361 36,000  Level Memphis Center
Tue 10:05:08 PM 33.5558 -87.9069 263° West 314 361 36,000  Level Memphis Center
Tue 10:06:08 PM 33.5453 -88.0094 263° West 314 361 36,000  Level Memphis Center
Tue 10:07:08 PM 33.5325 -88.1094 261° West 314 361 36,000  Level Memphis Center
Tue 10:08:08 PM 33.5258 -88.2117 266° West 314 361 36,000  Level Memphis Center
Tue 10:09:08 PM 33.5108 -88.3092 260° West 314 361 36,000  Level Memphis Center
Tue 10:10:08 PM 33.5019 -88.4092 264° West 314 361 36,000  Level Memphis Center
Tue 10:11:08 PM 33.4889 -88.5092 261° West 314 361 36,000  Level Memphis Center
Tue 10:12:08 PM 33.4861 -88.6086 268° West 314 361 36,000  Level Memphis Center
Tue 10:13:08 PM 33.4875 -88.7083 271° West 309 356 36,000  Level Memphis Center
Tue 10:14:08 PM 33.4867 -88.8081 269° West 309 356 36,000  Level Memphis Center
Tue 10:15:08 PM 33.4839 -88.9050 268° West 304 350 36,000  Level Memphis Center
Tue 10:16:08 PM 33.4828 -89.0022 269° West 304 350 36,000  Level Memphis Center
Tue 10:17:08 PM 33.4839 -89.0994 271° West 299 344 36,000  Level Memphis Center
Tue 10:18:08 PM 33.4828 -89.1967 269° West 299 344 36,000  Level Memphis Center
Tue 10:19:08 PM 33.4814 -89.2961 269° West 299 344 36,000  Level Memphis Center
Tue 10:20:08 PM 33.4800 -89.3833 269° West 299 344 36,000  Level Memphis Center
Tue 10:21:08 PM 33.4786 -89.4806 269° West 299 344 36,000  Level Memphis Center
Tue 10:22:08 PM 33.4794 -89.5778 271° West 299 344 36,000  Level Memphis Center
Tue 10:23:08 PM 33.4758 -89.6772 268° West 299 344 36,000  Level Memphis Center
Tue 10:24:08 PM 33.4742 -89.7744 269° West 299 344 36,000  Level Memphis Center
Tue 10:25:08 PM 33.4725 -89.8742 269° West 294 338 36,000  Level Memphis Center
Tue 10:26:08 PM 33.4708 -89.9686 269° West 294 338 36,000  Level Memphis Center
Tue 10:27:08 PM 33.4689 -90.0683 269° West 289 333 36,000  Level Memphis Center
Tue 10:28:08 PM 33.4672 -90.1656 269° West 289 333 36,000  Level Memphis Center
Tue 10:29:08 PM 33.4650 -90.2625 268° West 289 333 36,000  Level Memphis Center
Tue 10:30:08 PM 33.4339 -90.3647 250° West 294 338 36,000  Level Memphis Center
Tue 10:31:08 PM 33.4067 -90.4592 251° West 300 345 36,000  Level Memphis Center
Tue 10:32:08 PM 33.3794 -90.5514 251° West 305 351 36,000  Level Memphis Center
Tue 10:33:08 PM 33.3500 -90.6433 249° West 305 351 36,000  Level Memphis Center
Tue 10:34:08 PM 33.3228 -90.7375 251° West 305 351 36,000  Level Memphis Center
Tue 10:35:08 PM 33.2931 -90.8294 249° West 305 351 36,000  Level Memphis Center
Tue 10:36:08 PM 33.2636 -90.9211 249° West 305 351 36,000  Level Memphis Center
Tue 10:37:08 PM 33.2358 -91.0131 250° West 305 351 36,000  Level Memphis Center
Tue 10:38:08 PM 33.2061 -91.1069 249° West 305 351 36,000  Level Memphis Center
Tue 10:39:08 PM 33.1786 -91.1961 250° West 305 351 36,000  Level Memphis Center
Tue 10:40:08 PM 33.1508 -91.2878 250° West 305 351 36,000  Level Memphis Center
Tue 10:41:58 PM 33.1028 -91.4450 250° West 287 330 36,000  Level Fort Worth Center
Tue 10:42:58 PM 33.0736 -91.5336 249° West 287 330 36,000  Level Fort Worth Center
Tue 10:43:58 PM 33.0464 -91.6222 250° West 293 337 36,000  Level Fort Worth Center
Tue 10:44:58 PM 33.0172 -91.7158 250° West 299 344 36,000  Level Fort Worth Center
Tue 10:45:58 PM 32.9900 -91.8017 249° West 293 337 36,000  Level Fort Worth Center
Tue 10:46:58 PM 32.9647 -91.8900 251° West 288 331 36,000  Level Fort Worth Center
Tue 10:47:58 PM 32.9350 -91.9758 248° West 288 331 36,000  Level Fort Worth Center
Tue 10:48:58 PM 32.9056 -92.0667 249° West 293 337 36,000  Level Fort Worth Center
Tue 10:49:58 PM 32.8800 -92.1522 250° West 293 337 36,000  Level Fort Worth Center
Tue 10:50:58 PM 32.8503 -92.2406 248° West 293 337 36,000  Level Fort Worth Center
Tue 10:51:58 PM 32.8206 -92.3336 249° West 293 337 36,000  Level Fort Worth Center
Tue 10:52:58 PM 32.7906 -92.4194 247° West 293 337 36,000  Level Fort Worth Center
Tue 10:53:58 PM 32.7628 -92.5075 249° West 293 337 36,000  Level Fort Worth Center
Tue 10:54:58 PM 32.7328 -92.5956 248° West 293 337 36,000  Level Fort Worth Center
Tue 10:55:58 PM 32.7031 -92.6908 250° West 293 337 36,000  Level Fort Worth Center
Tue 10:56:58 PM 32.6750 -92.7786 249° West 293 337 36,000  Level Fort Worth Center
Tue 10:57:58 PM 32.6469 -92.8664 249° West 293 337 36,000  Level Fort Worth Center
Tue 10:58:58 PM 32.6144 -92.9544 246° West 298 343 36,000  Level Fort Worth Center
Tue 10:59:58 PM 32.5864 -93.0422 249° West 298 343 36,000  Level Fort Worth Center
Tue 11:00:58 PM 32.5539 -93.1300 246° West 298 343 36,000  Level Fort Worth Center
Tue 11:01:58 PM 32.5278 -93.2200 251° West 298 343 36,000  Level Fort Worth Center
Tue 11:02:58 PM 32.5097 -93.3119 257° West 298 343 36,000  Level Fort Worth Center
Tue 11:03:58 PM 32.5067 -93.4081 268° West 288 331 36,000  Level Fort Worth Center
Tue 11:04:58 PM 32.5033 -93.5017 268° West 288 331 36,000  Level Fort Worth Center
Tue 11:05:58 PM 32.4978 -93.5956 266° West 293 337 36,000  Level Fort Worth Center
Tue 11:06:58 PM 32.4944 -93.6894 268° West 293 337 36,000  Level Fort Worth Center
Tue 11:07:58 PM 32.4911 -93.7881 268° West 293 337 36,000  Level Fort Worth Center
Tue 11:08:58 PM 32.4853 -93.8817 266° West 293 337 36,000  Level Fort Worth Center
Tue 11:09:58 PM 32.4797 -93.9781 266° West 293 337 36,000  Level Fort Worth Center
Tue 11:10:58 PM 32.4739 -94.0742 266° West 293 337 36,000  Level Fort Worth Center
Tue 11:11:58 PM 32.4703 -94.1706 267° West 293 337 36,000  Level Fort Worth Center
Tue 11:12:58 PM 32.4642 -94.2642 266° West 293 337 36,000  Level Fort Worth Center
Tue 11:13:58 PM 32.4606 -94.3653 268° West 293 337 36,000  Level Fort Worth Center
Tue 11:14:58 PM 32.4542 -94.4592 265° West 298 343 36,000  Level Fort Worth Center
Tue 11:15:58 PM 32.4503 -94.5600 267° West 298 343 36,000  Level Fort Worth Center
Tue 11:16:58 PM 32.4442 -94.6539 266° West 292 336 36,000  Level Fort Worth Center
Tue 11:17:58 PM 32.4378 -94.7500 266° West 292 336 36,000 -500 Level Fort Worth Center
Tue 11:18:58 PM 32.4336 -94.8536 267° West 299 344 35,000 -850 Descending Fort Worth Center
Tue 11:19:58 PM 32.4292 -94.9372 266° West 306 352 34,300 -950 Descending Fort Worth Center
Tue 11:20:58 PM 32.4275 -95.0678 269° West 324 373 33,100 -1,050 Descending Fort Worth Center
Tue 11:21:58 PM 32.4231 -95.1761 267° West 337 388 32,200 -1,050 Descending Fort Worth Center
Tue 11:22:58 PM 32.4147 -95.2872 265° West 337 388 31,000 -1,700 Descending Fort Worth Center
Tue 11:23:58 PM 32.4269 -95.3928 278° West 331 381 28,800 -2,400 Descending Fort Worth Center
Tue 11:24:58 PM 32.4431 -95.4958 281° West 325 374 26,200 -2,600 Descending Fort Worth Center
Tue 11:25:58 PM 32.4592 -95.5964 281° West 325 374 23,600 -2,550 Descending Fort Worth Center
Tue 11:26:58 PM 32.4692 -95.7069 276° West 318 366 21,100 -2,650 Descending Fort Worth Center
Tue 11:27:58 PM 32.4869 -95.8028 282° West 318 366 18,300 -2,550 Descending Fort Worth Center
Tue 11:28:58 PM 32.5008 -95.9058 279° West 318 366 16,000 -2,500 Descending Fort Worth Center
Tue 11:29:58 PM 32.5167 -96.0042 281° West 308 354 13,300 -2,500 Descending Fort Worth Center
Tue 11:30:58 PM 32.5281 -96.0975 278° West 295 339 11,000 -2,150 Descending Fort Worth Center
Tue 11:31:58 PM 32.5414 -96.1764 281° West 281 323 9,000 -1,950 Descending Fort Worth Center
Tue 11:32:58 PM 32.5528 -96.2697 278° West 268 308 7,100 -1,000 Descending Fort Worth Center
Tue 11:33:58 PM 32.5700 -96.3461 285° West 268 308 7,000 -50 Descending Fort Worth Center
Tue 11:34:58 PM 32.6186 -96.4317 304° West 273 314 7,000  Level Fort Worth Center
Tue 11:35:58 PM 32.6589 -96.5003 305° West 280 322 7,000 -600 Level Fort Worth Center
Tue 11:36:58 PM 32.7200 -96.5739 315° West 285 328 5,800 -1,250 Descending Fort Worth Center
Tue 11:37:58 PM 32.7703 -96.6303 317° Northwest 285 328 4,500 -1,463 Descending Fort Worth Center
Tue 11:38:20 PM 32.8000 -96.6500 331° Northwest 276 318 3,800 -1,098 Descending Dallas / Fort Worth TRACON
Tue 11:39:20 PM 32.8500 -96.7167 312° West 267 307 3,000 -400 Descending Dallas / Fort Worth TRACON
Tue 11:40:20 PM 32.9000 -96.7667 320° Northwest 217 250 3,000  Level Dallas / Fort Worth TRACON
Tue 11:41:20 PM 32.9333 -96.8167 308° West 171 197 3,000  Level Dallas / Fort Worth TRACON
Tue 11:42:20 PM 32.9500 -96.8833 287° West 173 199 3,000 -350 Level Dallas / Fort Worth TRACON
Tue 11:43:20 PM 32.9167 -96.9000 203° Southwest 158 182 2,300 -900 Descending Dallas / Fort Worth TRACON
Tue 11:44:20 PM 32.8833 -96.8833 157° South 100 115 1,200 -1,100 Descending Dallas / Fort Worth TRACON
Tue 11:46:00 PM 32.8471 -96.8518 153° Southeast  Level Estimated
Tue 11:53:00 PM 32.8471 -96.8518 153° Southeast  Level Estimated

Login

Don't have an account? Register now (free) for customized features, flight alerts, and more!